Time;durP1;ratioP1;P1;durP2;ratioP2;P2;SDS_P1;SDS_P2;PMS_P1;PMS_P2;Temp;Humidity;BMP_temperature;BMP_pressure;BME280_temperature;BME280_humidity;BME280_pressure;Samples;Min_cycle;Max_cycle;Signal;HPM_P1;HPM_P2
2021/06/11 00:00:09;;;;;;;21.37;12.90;;;17.00;1.00;;;;;;5049789;28;20799;-75
2021/06/11 00:02:35;;;;;;;24.63;13.20;;;;;;;;;;5068115;28;20481;-75
2021/06/11 00:05:01;;;;;;;25.90;13.60;;;17.00;1.00;;;;;;5049553;28;20429;-75
2021/06/11 00:07:27;;;;;;;22.90;12.80;;;;;;;;;;5050111;28;20433;-75
2021/06/11 00:09:53;;;;;;;27.63;13.37;;;;;;;;;;5032646;28;20502;-75
2021/06/11 00:12:30;;;;;;;27.70;14.32;;;16.90;1.00;;;;;;5046485;28;20387;-74
2021/06/11 00:15:00;;;;;;;33.33;14.13;;;16.90;1.00;;;;;;5036181;28;20178;-75
2021/06/11 00:17:25;;;;;;;28.43;14.10;;;16.90;1.00;;;;;;5038226;28;20923;-75
2021/06/11 00:19:54;;;;;;;26.20;13.57;;;16.80;1.00;;;;;;5032674;28;20396;-76
2021/06/11 00:22:19;;;;;;;29.23;13.23;;;16.80;1.00;;;;;;5032830;28;20652;-74
2021/06/11 00:24:48;;;;;;;20.00;12.97;;;16.80;1.00;;;;;;5038055;28;20419;-75
2021/06/11 00:27:14;;;;;;;17.70;11.90;;;;;;;;;;5036284;28;20246;-74
2021/06/11 00:29:39;;;;;;;20.57;12.63;;;16.80;1.00;;;;;;5050994;28;20472;-75
2021/06/11 00:32:06;;;;;;;23.70;12.70;;;16.80;1.00;;;;;;5052506;28;20472;-75
2021/06/11 00:34:36;;;;;;;21.10;13.10;;;;;;;;;;5052823;28;20162;-75
2021/06/11 00:37:02;;;;;;;18.97;12.10;;;;;;;;;;5050382;28;20765;-75
2021/06/11 00:39:28;;;;;;;19.43;13.30;;;16.70;1.00;;;;;;5038578;28;20394;-75
2021/06/11 00:41:56;;;;;;;21.60;12.60;;;16.70;1.00;;;;;;5034404;28;20466;-75
2021/06/11 00:44:24;;;;;;;19.13;12.60;;;16.70;1.00;;;;;;5036534;28;20174;-74
2021/06/11 00:47:06;;;;;;;25.30;12.53;;;;;;;;;;5046745;28;20450;-74
2021/06/11 00:49:32;;;;;;;22.70;13.33;;;;;;;;;;5036037;28;20440;-74
2021/06/11 00:51:59;;;;;;;19.10;12.83;;;;;;;;;;5040878;28;20503;-74
2021/06/11 00:54:30;;;;;;;23.13;12.60;;;16.60;1.00;;;;;;5055980;28;20864;-74
2021/06/11 00:57:12;;;;;;;29.23;14.60;;;;;;;;;;5055234;28;20710;-74
2021/06/11 00:59:43;;;;;;;22.30;13.50;;;16.60;1.00;;;;;;5047649;28;20397;-75
2021/06/11 01:02:10;;;;;;;19.20;12.73;;;16.50;1.00;;;;;;5047756;28;20583;-74
2021/06/11 01:04:37;;;;;;;30.20;13.27;;;16.50;1.00;;;;;;5035916;28;20439;-75
2021/06/11 01:07:04;;;;;;;19.50;12.70;;;16.50;1.00;;;;;;5038605;28;20419;-75
2021/06/11 01:09:33;;;;;;;27.43;13.33;;;16.50;1.00;;;;;;5040636;28;20421;-75
2021/06/11 01:12:00;;;;;;;18.77;13.07;;;16.50;1.00;;;;;;5055753;28;20397;-76
2021/06/11 01:14:26;;;;;;;26.00;13.20;;;16.50;1.00;;;;;;5055563;28;20888;-75
2021/06/11 01:16:54;;;;;;;24.97;12.33;;;16.40;1.00;;;;;;5038859;28;20401;-75
2021/06/11 01:19:25;;;;;;;22.07;13.63;;;16.40;1.00;;;;;;5035195;28;20417;-75
2021/06/11 01:22:05;;;;;;;20.70;12.60;;;16.40;1.00;;;;;;5042443;28;20458;-75
2021/06/11 01:24:36;;;;;;;30.03;13.80;;;16.40;1.00;;;;;;5035552;28;20418;-76
2021/06/11 01:27:06;;;;;;;23.03;12.60;;;;;;;;;;5041809;28;20436;-75
2021/06/11 01:29:32;;;;;;;27.30;12.03;;;;;;;;;;5055486;28;20361;-74
2021/06/11 01:32:04;;;;;;;21.33;13.43;;;16.30;1.00;;;;;;5055178;28;20733;-74
2021/06/11 01:34:40;;;;;;;21.07;12.33;;;16.30;1.00;;;;;;5055059;28;20393;-74
2021/06/11 01:37:12;;;;;;;24.87;12.50;;;;;;;;;;5037439;28;20413;-74
2021/06/11 01:39:39;;;;;;;19.17;12.50;;;16.20;1.00;;;;;;5041515;28;20422;-74
2021/06/11 01:42:06;;;;;;;18.93;12.10;;;16.20;1.00;;;;;;5054896;28;20528;-74
2021/06/11 01:44:35;;;;;;;26.00;13.70;;;16.20;1.00;;;;;;5041441;28;20389;-75
2021/06/11 01:47:02;;;;;;;19.80;12.90;;;16.20;1.00;;;;;;5036438;28;20417;-75
2021/06/11 01:49:29;;;;;;;28.60;14.40;;;16.20;1.00;;;;;;5038678;28;20417;-75
2021/06/11 01:51:58;;;;;;;34.00;13.60;;;16.20;1.00;;;;;;5033488;28;20431;-75
2021/06/11 01:54:25;;;;;;;23.47;14.07;;;16.20;1.00;;;;;;5036791;28;20425;-75
2021/06/11 01:56:52;;;;;;;23.17;13.03;;;16.10;1.00;;;;;;5034947;28;20412;-75
2021/06/11 01:59:18;;;;;;;22.90;13.67;;;16.10;1.00;;;;;;5035275;28;20725;-75
2021/06/11 02:01:49;;;;;;;21.13;11.87;;;16.10;1.00;;;;;;5039865;28;20393;-75
2021/06/11 02:04:19;;;;;;;37.60;14.10;;;16.10;1.00;;;;;;5043714;28;20426;-75
2021/06/11 02:06:45;;;;;;;24.70;14.07;;;16.00;1.00;;;;;;5047126;28;20845;-75
2021/06/11 02:09:12;;;;;;;20.50;12.13;;;16.00;1.00;;;;;;5049023;28;20442;-75
2021/06/11 02:11:41;;;;;;;30.50;12.73;;;16.00;1.00;;;;;;5034321;28;20435;-75
2021/06/11 02:14:10;;;;;;;26.13;13.03;;;16.00;1.00;;;;;;5034318;28;20438;-75
2021/06/11 02:16:37;;;;;;;25.80;14.10;;;15.90;1.00;;;;;;5036482;28;21038;-75
2021/06/11 02:19:03;;;;;;;26.20;13.97;;;15.90;1.00;;;;;;5034083;28;20751;-75
2021/06/11 02:21:30;;;;;;;19.13;11.93;;;15.90;1.00;;;;;;5047633;28;20599;-75
2021/06/11 02:23:56;;;;;;;25.23;12.60;;;;;;;;;;5053822;28;21042;-75
2021/06/11 02:26:23;;;;;;;19.53;11.67;;;15.90;1.00;;;;;;5053611;28;20450;-75
2021/06/11 02:28:50;;;;;;;35.30;13.17;;;15.80;1.00;;;;;;5053911;28;20376;-75
2021/06/11 02:31:16;;;;;;;29.30;14.13;;;15.80;1.00;;;;;;5038843;28;20392;-75
2021/06/11 02:33:48;;;;;;;23.33;12.60;;;15.70;1.00;;;;;;5033816;28;20470;-75
2021/06/11 02:36:14;;;;;;;17.63;11.97;;;15.70;1.00;;;;;;5047080;28;20418;-75
2021/06/11 02:38:40;;;;;;;17.80;11.77;;;15.70;1.00;;;;;;5038278;28;20476;-75
2021/06/11 02:41:08;;;;;;;24.70;13.43;;;15.70;1.00;;;;;;5032674;28;21019;-76
2021/06/11 02:43:40;;;;;;;31.53;14.03;;;15.70;1.00;;;;;;5031778;28;20208;-74
2021/06/11 02:46:18;;;;;;;29.43;13.63;;;15.60;1.00;;;;;;5033463;28;20399;-74
2021/06/11 02:49:00;;;;;;;24.77;12.80;;;15.60;1.00;;;;;;5033228;28;20395;-74
2021/06/11 02:51:26;;;;;;;20.83;13.80;;;;;;;;;;5051240;28;20409;-74
2021/06/11 02:53:54;;;;;;;25.40;13.37;;;15.50;1.00;;;;;;5050116;28;20497;-74
2021/06/11 02:56:33;;;;;;;25.57;13.37;;;15.50;1.00;;;;;;5053608;28;20411;-74
2021/06/11 02:59:02;;;;;;;26.87;13.50;;;15.50;1.00;;;;;;5053526;28;20403;-74
2021/06/11 03:01:33;;;;;;;20.20;12.57;;;15.50;1.00;;;;;;5053654;28;20385;-74
2021/06/11 03:04:01;;;;;;;25.57;13.87;;;15.50;1.00;;;;;;5052600;28;20882;-74
2021/06/11 03:06:31;;;;;;;22.43;12.60;;;15.50;1.00;;;;;;5033457;28;20856;-74
2021/06/11 03:08:57;;;;;;;22.60;13.33;;;15.50;1.00;;;;;;5050905;28;20420;-74
2021/06/11 03:11:36;;;;;;;27.43;12.67;;;15.50;1.00;;;;;;5052329;28;20500;-74
2021/06/11 03:14:03;;;;;;;30.80;14.83;;;15.40;1.00;;;;;;5033731;28;20381;-74
2021/06/11 03:16:30;;;;;;;34.80;14.80;;;15.40;1.00;;;;;;5031963;28;20433;-74
2021/06/11 03:19:01;;;;;;;24.83;14.20;;;15.40;1.00;;;;;;5034783;28;20411;-74
2021/06/11 03:21:42;;;;;;;21.07;12.67;;;15.40;1.00;;;;;;5053225;28;20769;-74
2021/06/11 03:24:18;;;;;;;23.83;14.07;;;15.40;1.00;;;;;;5036214;28;20397;-74
2021/06/11 03:27:12;;;;;;;21.90;12.83;;;15.40;1.00;;;;;;5033267;28;20909;-75
2021/06/11 03:29:49;;;;;;;25.33;13.27;;;15.40;1.00;;;;;;5033475;28;20408;-75
2021/06/11 03:32:38;;;;;;;24.37;14.03;;;15.40;1.00;;;;;;5032992;28;20957;-75
2021/06/11 03:35:14;;;;;;;25.40;12.87;;;15.40;1.00;;;;;;5042519;28;20411;-75
2021/06/11 03:37:40;;;;;;;26.50;13.13;;;15.40;1.00;;;;;;5032978;28;20397;-75
2021/06/11 03:40:31;;;;;;;28.30;14.07;;;15.40;1.00;;;;;;5042129;28;20542;-75
2021/06/11 03:43:01;;;;;;;28.13;13.20;;;15.40;1.00;;;;;;5052706;28;21303;-75
2021/06/11 03:45:28;;;;;;;24.00;13.23;;;15.40;1.00;;;;;;5053197;28;20467;-75
2021/06/11 03:47:56;;;;;;;25.27;13.40;;;15.40;1.00;;;;;;5053177;28;20374;-75
2021/06/11 03:50:25;;;;;;;22.87;12.80;;;15.50;1.00;;;;;;5046906;28;20877;-75
2021/06/11 03:59:37;;;;;;;28.40;13.03;;;15.50;1.00;;;;;;5039849;28;20776;-78
2021/06/11 04:02:05;;;;;;;25.60;14.07;;;15.50;1.00;;;;;;5042168;28;20448;-78
2021/06/11 04:04:48;;;;;;;28.97;14.70;;;;;;;;;;5041422;28;20518;-78
2021/06/11 04:07:23;;;;;;;21.90;13.17;;;15.60;1.00;;;;;;5050647;28;20445;-79
2021/06/11 04:10:28;;;;;;;23.70;13.10;;;15.60;1.00;;;;;;5052768;28;20413;-78
2021/06/11 04:12:55;;;;;;;31.43;13.90;;;;;;;;;;5052339;28;20932;-77
2021/06/11 04:15:27;;;;;;;44.77;15.10;;;15.70;1.00;;;;;;5061702;28;20429;-76
2021/06/11 04:18:37;;;;;;;23.03;12.87;;;15.80;1.00;;;;;;5037201;28;20414;-77
2021/06/11 04:21:35;;;;;;;25.03;13.80;;;15.90;1.00;;;;;;5042404;28;20438;-77
2021/06/11 04:30:55;;;;;;;29.30;12.40;;;;;;;;;;5036119;28;20346;-77
2021/06/11 04:33:31;;;;;;;26.67;13.67;;;;;;;;;;5036222;28;21012;-78
2021/06/11 04:36:09;;;;;;;22.40;12.80;;;16.10;1.00;;;;;;5055454;28;20469;-79
2021/06/11 04:38:55;;;;;;;27.20;13.20;;;16.20;1.00;;;;;;5056301;28;20509;-78
2021/06/11 04:41:22;;;;;;;23.60;12.83;;;16.30;1.00;;;;;;5035316;28;20385;-79
2021/06/11 04:47:10;;;;;;;23.23;12.67;;;;;;;;;;5040633;28;20410;-85
2021/06/11 04:56:20;;;;;;;21.97;11.70;;;16.70;1.00;;;;;;5035026;28;20381;-77
2021/06/11 05:05:12;;;;;;;21.30;11.27;;;17.00;1.00;;;;;;5042887;28;20400;-78
2021/06/11 05:11:18;;;;;;;22.83;12.07;;;;;;;;;;5049626;28;20184;-78
2021/06/11 05:14:11;;;;;;;22.80;11.77;;;17.30;1.00;;;;;;5064903;28;20773;-78
2021/06/11 05:16:48;;;;;;;28.90;12.13;;;;;;;;;;5044849;28;20422;-79
2021/06/11 05:19:18;;;;;;;40.73;13.60;;;;;;;;;;5035635;28;20810;-78
2021/06/11 05:25:29;;;;;;;17.90;10.13;;;17.70;1.00;;;;;;5054974;28;20869;-79
2021/06/11 05:34:39;;;;;;;28.17;12.97;;;;;;;;;;5035315;28;20834;-79
2021/06/11 05:37:35;;;;;;;32.43;12.90;;;;;;;;;;5054580;28;20948;-79
2021/06/11 05:40:01;;;;;;;23.50;12.60;;;18.40;1.00;;;;;;5058094;28;20389;-80
2021/06/11 05:48:55;;;;;;;27.70;12.10;;;18.80;1.00;;;;;;5051514;28;20495;-79
2021/06/11 05:51:21;;;;;;;21.33;11.23;;;;;;;;;;5051713;28;20740;-84
2021/06/11 05:57:30;;;;;;;16.80;10.37;;;19.20;1.00;;;;;;5050151;28;20421;-84
2021/06/11 06:10:12;;;;;;;19.33;10.30;;;19.70;1.00;;;;;;5046466;28;20404;-85
2021/06/11 06:13:23;;;;;;;18.90;11.30;;;19.80;1.00;;;;;;5035786;28;20420;-83
2021/06/11 06:19:11;;;;;;;24.83;11.77;;;;;;;;;;5033596;28;21116;-80
2021/06/11 06:21:48;;;;;;;21.23;9.70;;;20.20;1.00;;;;;;5040562;28;20418;-85
2021/06/11 06:27:17;;;;;;;39.13;12.70;;;20.40;1.00;;;;;;5034087;28;20401;-85
2021/06/11 06:32:47;;;;;;;22.53;10.97;;;20.60;1.00;;;;;;5033503;28;20472;-80
2021/06/11 06:36:08;;;;;;;26.40;11.10;;;20.80;1.00;;;;;;5043213;28;20439;-80
2021/06/11 06:41:42;;;;;;;19.63;10.43;;;;;;;;;;5034471;28;20405;-79
2021/06/11 06:44:13;;;;;;;21.53;9.90;;;;;;;;;;5052870;28;20897;-79
2021/06/11 06:47:06;;;;;;;21.50;10.27;;;21.30;1.00;;;;;;5053120;28;20482;-79
2021/06/11 06:53:29;;;;;;;14.73;9.60;;;;;;;;;;5033331;28;20881;-80
2021/06/11 06:56:24;;;;;;;24.43;10.03;;;21.80;1.00;;;;;;5033123;28;20404;-79
2021/06/11 06:59:06;;;;;;;18.17;9.30;;;21.90;1.00;;;;;;5032528;28;20414;-79
2021/06/11 07:02:17;;;;;;;12.33;9.17;;;22.00;1.00;;;;;;5047316;28;20441;-80
2021/06/11 07:05:29;;;;;;;26.50;9.97;;;22.10;1.00;;;;;;5047337;28;20989;-79
2021/06/11 07:11:12;;;;;;;18.83;9.77;;;22.40;1.00;;;;;;5052813;28;20439;-75
2021/06/11 07:13:42;;;;;;;17.03;9.23;;;22.40;1.00;;;;;;5054406;28;20567;-75
2021/06/11 07:16:09;;;;;;;23.57;10.20;;;22.60;1.00;;;;;;5073133;28;20458;-75
2021/06/11 07:18:36;;;;;;;16.20;8.77;;;;;;;;;;5072969;28;20396;-74
2021/06/11 07:21:04;;;;;;;19.17;10.63;;;22.80;1.00;;;;;;5041409;28;20823;-74
2021/06/11 07:23:32;;;;;;;22.17;9.80;;;22.90;1.00;;;;;;5031644;28;20441;-74
2021/06/11 07:25:59;;;;;;;19.30;9.43;;;23.00;1.00;;;;;;5031720;28;20399;-74
2021/06/11 07:28:28;;;;;;;28.03;10.07;;;;;;;;;;5031978;28;20396;-75
2021/06/11 07:30:55;;;;;;;17.13;10.00;;;;;;;;;;5062966;28;20452;-75
2021/06/11 07:33:21;;;;;;;14.13;9.60;;;23.30;1.00;;;;;;5057584;28;20406;-75
2021/06/11 07:35:47;;;;;;;15.43;9.13;;;23.40;1.00;;;;;;5051677;28;20395;-75
2021/06/11 07:38:16;;;;;;;13.70;8.97;;;23.50;1.00;;;;;;5052003;28;20427;-75
2021/06/11 07:40:44;;;;;;;23.97;10.43;;;;;;;;;;5051120;28;20436;-78
2021/06/11 07:43:10;;;;;;;12.90;8.63;;;21.10;1.00;;;;;;5044524;28;20486;-78
2021/06/11 07:45:36;;;;;;;20.63;9.10;;;;;;;;;;5051625;28;20403;-78
2021/06/11 07:48:02;;;;;;;19.10;9.90;;;;;;;;;;5051590;28;20406;-77
2021/06/11 07:50:29;;;;;;;16.57;8.33;;;;;;;;;;5052339;28;20397;-91
2021/06/11 07:52:55;;;;;;;13.90;9.37;;;;;;;;;;5056030;28;20482;-86
2021/06/11 07:55:21;;;;;;;11.27;7.90;;;;;;;;;;5054199;28;20435;-84
2021/06/11 07:57:51;;;;;;;16.00;9.60;;;;;;;;;;5065013;28;20915;-87
2021/06/11 08:00:21;;;;;;;16.60;8.70;;;24.40;1.00;;;;;;5054633;28;20416;-86
2021/06/11 08:02:48;;;;;;;13.87;8.10;;;;;;;;;;5048491;28;20495;-86
2021/06/11 08:05:14;;;;;;;11.47;8.60;;;;;;;;;;5056498;28;20400;-78
2021/06/11 08:07:42;;;;;;;13.07;8.43;;;24.80;1.00;;;;;;5054863;28;20423;-72
2021/06/11 08:10:09;;;;;;;11.73;8.77;;;24.90;1.00;;;;;;5037283;28;20426;-72
2021/06/11 08:12:35;;;;;;;13.50;8.33;;;25.00;1.00;;;;;;5034619;28;20476;-72
2021/06/11 08:15:03;;;;;;;11.80;8.70;;;24.90;1.00;;;;;;5036199;28;20429;-74
2021/06/11 08:17:47;;;;;;;11.87;8.03;;;24.80;1.00;;;;;;5039420;28;20433;-85
2021/06/11 08:20:18;;;;;;;10.10;7.93;;;24.70;1.00;;;;;;5035001;28;20417;-82
2021/06/11 08:22:52;;;;;;;10.40;8.10;;;;;;;;;;5051435;28;20416;-82
2021/06/11 08:25:36;;;;;;;13.13;8.83;;;25.00;1.00;;;;;;5048387;28;20411;-82
2021/06/11 08:28:47;;;;;;;17.27;10.17;;;25.00;1.00;;;;;;5056062;28;21072;-82
2021/06/11 08:31:14;;;;;;;14.00;9.00;;;25.30;1.00;;;;;;5042123;28;20404;-82
2021/06/11 08:33:54;;;;;;;14.00;8.37;;;25.40;1.00;;;;;;5063069;28;20456;-82
2021/06/11 08:36:47;;;;;;;12.93;7.97;;;25.50;1.00;;;;;;5052941;28;20402;-81
2021/06/11 08:42:44;;;;;;;9.70;7.50;;;25.70;1.00;;;;;;5054130;28;20470;-80
2021/06/11 08:45:11;;;;;;;13.03;8.13;;;25.80;1.00;;;;;;5050235;28;20413;-82
2021/06/11 08:47:58;;;;;;;9.60;7.77;;;;;;;;;;5065656;28;20410;-82
2021/06/11 08:50:47;;;;;;;13.70;8.47;;;25.90;1.00;;;;;;5074219;28;20433;-82
2021/06/11 08:56:54;;;;;;;11.40;8.80;;;26.00;1.00;;;;;;5070040;28;20554;-78
2021/06/11 08:59:44;;;;;;;15.13;8.90;;;25.90;1.00;;;;;;5076152;28;20391;-78
2021/06/11 09:02:24;;;;;;;12.43;8.93;;;26.00;1.00;;;;;;5075928;28;20449;-78
2021/06/11 09:04:55;;;;;;;16.30;8.90;;;26.10;1.00;;;;;;5056625;28;20439;-78
2021/06/11 09:07:26;;;;;;;16.13;9.00;;;26.30;1.00;;;;;;5054722;28;21017;-78
2021/06/11 09:10:00;;;;;;;19.60;9.80;;;26.40;1.00;;;;;;5054078;28;20942;-78
2021/06/11 09:12:31;;;;;;;11.80;8.27;;;26.40;1.00;;;;;;5054707;28;20385;-78
2021/06/11 09:14:57;;;;;;;13.07;8.77;;;;;;;;;;5047169;28;20960;-78
2021/06/11 09:17:40;;;;;;;33.23;10.83;;;26.60;1.00;;;;;;5046955;28;20468;-78
2021/06/11 09:20:14;;;;;;;11.30;8.70;;;26.70;1.00;;;;;;5050804;28;20499;-79
2021/06/11 09:22:44;;;;;;;29.47;10.53;;;26.80;1.00;;;;;;5040924;28;20448;-78
2021/06/11 09:25:33;;;;;;;15.73;8.40;;;26.70;1.00;;;;;;5052639;28;20403;-78
2021/06/11 09:28:05;;;;;;;12.37;8.80;;;26.80;1.00;;;;;;5054710;28;20393;-77
2021/06/11 09:30:53;;;;;;;12.33;8.43;;;26.70;1.00;;;;;;5051704;28;20448;-78
2021/06/11 09:33:21;;;;;;;11.00;8.30;;;26.80;1.00;;;;;;5039018;28;20439;-78
2021/06/11 09:35:52;;;;;;;12.73;8.47;;;27.00;1.00;;;;;;5054069;28;20901;-78
2021/06/11 09:38:27;;;;;;;18.63;10.20;;;27.00;1.00;;;;;;5043532;28;20805;-78
2021/06/11 09:40:59;;;;;;;14.33;9.40;;;27.10;1.00;;;;;;5051054;28;20824;-78
2021/06/11 09:43:26;;;;;;;12.20;9.10;;;27.20;1.00;;;;;;5044592;28;20458;-77
2021/06/11 09:46:13;;;;;;;10.97;8.10;;;27.20;1.00;;;;;;5050350;28;20521;-77
2021/06/11 09:48:48;;;;;;;9.83;8.00;;;27.30;1.00;;;;;;5053669;28;20398;-76
2021/06/11 09:51:19;;;;;;;11.10;8.30;;;27.30;1.00;;;;;;5046098;28;20430;-76
2021/06/11 09:53:46;;;;;;;13.13;9.13;;;27.40;1.00;;;;;;5051564;28;20427;-76
2021/06/11 09:56:22;;;;;;;11.20;8.30;;;27.30;1.00;;;;;;5046439;28;20521;-77
2021/06/11 09:58:50;;;;;;;20.83;9.83;;;27.30;1.00;;;;;;5053688;28;20399;-76
2021/06/11 10:01:17;;;;;;;13.27;8.73;;;;;;;;;;5053532;28;20391;-76
2021/06/11 10:03:45;;;;;;;13.87;9.53;;;27.20;1.00;;;;;;5053083;28;20444;-76
2021/06/11 10:06:14;;;;;;;14.40;7.67;;;27.20;1.00;;;;;;5053457;28;20402;-76
2021/06/11 10:08:45;;;;;;;10.80;7.97;;;27.20;1.00;;;;;;5053253;28;20430;-76
2021/06/11 10:11:17;;;;;;;10.70;7.37;;;27.30;1.00;;;;;;5053582;28;20891;-76
2021/06/11 10:13:43;;;;;;;11.93;7.80;;;27.40;1.00;;;;;;5054045;28;20419;-76
2021/06/11 10:16:14;;;;;;;12.90;8.20;;;27.60;1.00;;;;;;5051280;28;20414;-76
2021/06/11 10:18:41;;;;;;;9.07;7.40;;;27.80;1.00;;;;;;5051526;28;20473;-75
2021/06/11 10:21:08;;;;;;;9.00;7.10;;;28.00;1.00;;;;;;5053783;28;20495;-74
2021/06/11 10:23:35;;;;;;;10.20;7.57;;;28.20;1.00;;;;;;5048713;28;20454;-75
2021/06/11 10:26:03;;;;;;;9.73;7.87;;;28.30;1.00;;;;;;5033486;28;20416;-76
2021/06/11 10:28:39;;;;;;;10.97;7.00;;;28.40;1.00;;;;;;5035775;28;20457;-77
2021/06/11 10:31:10;;;;;;;11.53;7.27;;;28.40;1.00;;;;;;5046417;28;20422;-77
2021/06/11 10:33:46;;;;;;;20.77;7.70;;;28.50;1.00;;;;;;5046741;28;20435;-78
2021/06/11 10:38:56;;;;;;;7.50;5.63;;;28.50;1.00;;;;;;5047173;28;20453;-77
2021/06/11 10:41:56;;;;;;;8.37;5.70;;;28.60;1.00;;;;;;5040540;28;20482;-78
2021/06/11 10:47:54;;;;;;;7.20;4.60;;;28.90;1.00;;;;;;5033202;28;20370;-80
2021/06/11 10:50:59;;;;;;;15.63;4.17;;;28.90;1.00;;;;;;5033451;28;20402;-79
2021/06/11 10:53:48;;;;;;;4.40;4.00;;;29.00;1.00;;;;;;5033397;28;20387;-77
2021/06/11 10:57:02;;;;;;;11.93;4.37;;;28.80;1.00;;;;;;5034331;28;20448;-77
2021/06/11 10:59:38;;;;;;;5.40;3.40;;;28.70;1.00;;;;;;5034833;28;20450;-77
2021/06/11 11:02:14;;;;;;;3.90;3.37;;;28.90;1.00;;;;;;5040544;28;20428;-78
2021/06/11 11:04:44;;;;;;;7.57;3.63;;;29.10;1.00;;;;;;5041896;28;20411;-76
2021/06/11 11:07:30;;;;;;;8.70;4.13;;;29.20;1.00;;;;;;5038430;28;20446;-75
2021/06/11 11:09:59;;;;;;;5.73;3.70;;;29.20;1.00;;;;;;5035047;28;20411;-75
2021/06/11 11:12:50;;;;;;;4.87;3.57;;;29.10;1.00;;;;;;5033330;28;20397;-75
2021/06/11 11:15:48;;;;;;;10.40;3.33;;;29.10;1.00;;;;;;5033328;28;20776;-76
2021/06/11 11:18:23;;;;;;;7.17;3.50;;;29.30;1.00;;;;;;5049466;28;20427;-76
2021/06/11 11:20:50;;;;;;;9.10;4.00;;;29.30;1.00;;;;;;5033170;28;20421;-77
2021/06/11 11:23:23;;;;;;;9.70;3.63;;;29.40;1.00;;;;;;5033772;28;20564;-77
2021/06/11 11:25:49;;;;;;;6.33;3.57;;;29.30;1.00;;;;;;5052242;28;20886;-76
2021/06/11 11:28:16;;;;;;;17.87;4.50;;;29.10;1.00;;;;;;5062157;28;20486;-76
2021/06/11 11:30:45;;;;;;;3.97;3.60;;;28.90;1.00;;;;;;5043087;28;20417;-75
2021/06/11 11:33:12;;;;;;;5.73;3.60;;;28.70;1.00;;;;;;5033312;28;20402;-75
2021/06/11 11:35:42;;;;;;;3.60;3.30;;;28.70;1.00;;;;;;5032688;28;20405;-75
2021/06/11 11:38:13;;;;;;;17.53;5.40;;;28.80;1.00;;;;;;5040835;28;20583;-74
2021/06/11 11:40:44;;;;;;;4.90;4.03;;;28.90;1.00;;;;;;5042365;28;20445;-75
2021/06/11 11:43:10;;;;;;;8.73;4.40;;;;;;;;;;5050804;28;21057;-75
2021/06/11 11:45:38;;;;;;;6.03;4.40;;;29.40;1.00;;;;;;5033526;28;20489;-74
2021/06/11 11:48:06;;;;;;;4.77;3.73;;;29.40;1.00;;;;;;5032695;28;20409;-74
2021/06/11 11:53:53;;;;;;;7.10;3.70;;;29.40;1.00;;;;;;5051698;28;20407;-75
2021/06/11 11:56:19;;;;;;;6.03;3.93;;;29.60;1.00;;;;;;5067852;28;20847;-75
2021/06/11 11:58:45;;;;;;;6.10;3.70;;;29.70;1.00;;;;;;5068571;28;20241;-75
2021/06/11 12:01:12;;;;;;;3.77;3.43;;;29.80;1.00;;;;;;5050628;28;20516;-75
2021/06/11 12:03:42;;;;;;;3.67;3.40;;;29.90;1.00;;;;;;5050361;28;20205;-75
2021/06/11 12:06:08;;;;;;;9.10;3.60;;;30.00;1.00;;;;;;5054343;28;20433;-77
2021/06/11 12:08:36;;;;;;;4.80;3.17;;;30.10;1.00;;;;;;5059972;28;20425;-77
2021/06/11 12:11:06;;;;;;;11.30;4.20;;;30.20;1.00;;;;;;5052825;28;20636;-75
2021/06/11 12:13:43;;;;;;;7.93;4.10;;;30.30;1.00;;;;;;5052472;28;20764;-75
2021/06/11 12:16:24;;;;;;;6.60;3.37;;;30.50;1.00;;;;;;5052690;28;20397;-76
2021/06/11 12:18:49;;;;;;;9.50;3.43;;;30.70;1.00;;;;;;5032708;28;20544;-77
2021/06/11 12:21:18;;;;;;;8.50;4.33;;;30.60;1.00;;;;;;5051871;28;20912;-76
2021/06/11 12:23:44;;;;;;;10.33;3.80;;;30.40;1.00;;;;;;5051397;28;20531;-76
2021/06/11 12:26:09;;;;;;;4.87;4.07;;;30.40;1.00;;;;;;5052540;28;20394;-76
2021/06/11 12:28:35;;;;;;;10.03;4.43;;;30.40;1.00;;;;;;5052000;28;20618;-76
2021/06/11 12:31:12;;;;;;;7.30;4.30;;;30.60;1.00;;;;;;5044434;28;20736;-75
2021/06/11 12:33:48;;;;;;;8.10;4.30;;;30.60;1.00;;;;;;5046533;28;20175;-76
2021/06/11 12:36:14;;;;;;;4.40;4.00;;;;;;;;;;5052149;28;20390;-75
2021/06/11 12:38:48;;;;;;;15.40;4.23;;;30.80;1.00;;;;;;5056295;28;20794;-75
2021/06/11 12:41:15;;;;;;;19.30;5.60;;;30.60;1.00;;;;;;5045059;28;20529;-75
2021/06/11 12:46:31;;;;;;;5.57;4.30;;;30.70;1.00;;;;;;5055614;28;21101;-76
2021/06/11 12:49:00;;;;;;;10.13;4.47;;;30.70;1.00;;;;;;5035467;28;20427;-75
2021/06/11 12:51:32;;;;;;;10.20;4.93;;;30.60;1.00;;;;;;5044520;28;20778;-76
2021/06/11 12:53:57;;;;;;;7.00;3.80;;;30.50;1.00;;;;;;5055664;28;20396;-75
2021/06/11 12:56:23;;;;;;;3.63;3.17;;;30.50;1.00;;;;;;5055216;28;20513;-76
2021/06/11 12:58:49;;;;;;;13.50;4.90;;;30.40;1.00;;;;;;5055678;28;20172;-76
2021/06/11 13:01:15;;;;;;;7.80;3.90;;;;;;;;;;5056394;28;20562;-76
2021/06/11 13:03:48;;;;;;;4.07;3.77;;;30.40;1.00;;;;;;5053008;28;20651;-76
2021/06/11 13:06:13;;;;;;;9.10;4.40;;;30.50;1.00;;;;;;5054327;28;20405;-76
2021/06/11 13:08:39;;;;;;;3.80;3.30;;;;;;;;;;5053476;28;20399;-76
2021/06/11 13:11:05;;;;;;;8.83;3.73;;;;;;;;;;5054307;28;20235;-76
2021/06/11 13:13:32;;;;;;;11.83;4.67;;;;;;;;;;5054270;28;20447;-76
2021/06/11 13:15:58;;;;;;;4.20;3.40;;;;;;;;;;5046768;28;20431;-75
2021/06/11 13:18:24;;;;;;;5.07;3.17;;;30.50;1.00;;;;;;5035513;28;20396;-76
2021/06/11 13:20:50;;;;;;;3.67;3.23;;;30.60;1.00;;;;;;5017542;28;20814;-76
2021/06/11 13:23:18;;;;;;;8.30;3.90;;;30.60;1.00;;;;;;5054924;28;20472;-76
2021/06/11 13:25:44;;;;;;;3.77;3.20;;;30.60;1.00;;;;;;5055209;28;20160;-76
2021/06/11 13:28:12;;;;;;;3.57;3.10;;;;;;;;;;5047814;28;20460;-76
2021/06/11 13:30:42;;;;;;;3.10;2.50;;;;;;;;;;5055083;28;20170;-77
2021/06/11 13:33:19;;;;;;;2.60;2.40;;;30.70;1.00;;;;;;5054988;28;20422;-77
2021/06/11 13:35:46;;;;;;;6.60;3.00;;;30.70;1.00;;;;;;5054399;28;20414;-76
2021/06/11 13:38:18;;;;;;;3.23;2.60;;;30.80;1.00;;;;;;5055012;28;20595;-79
2021/06/11 13:40:44;;;;;;;18.30;3.50;;;;;;;;;;5054191;28;20536;-77
2021/06/11 13:43:10;;;;;;;2.30;2.07;;;31.00;1.00;;;;;;5054866;28;20478;-78
2021/06/11 13:45:36;;;;;;;3.13;2.20;;;31.20;1.00;;;;;;5054461;28;20858;-77
2021/06/11 13:48:03;;;;;;;5.57;2.70;;;31.40;1.00;;;;;;5053248;28;20907;-77
2021/06/11 13:50:31;;;;;;;7.20;3.10;;;31.70;1.00;;;;;;5054237;28;20407;-77
2021/06/11 13:52:59;;;;;;;2.70;2.03;;;31.80;1.00;;;;;;5054449;28;20410;-78
2021/06/11 13:55:25;;;;;;;6.33;2.73;;;32.10;1.00;;;;;;5054453;28;20517;-78
2021/06/11 13:58:00;;;;;;;6.70;2.20;;;32.20;1.00;;;;;;5054777;28;20874;-78
2021/06/11 14:00:36;;;;;;;4.30;2.43;;;32.20;1.00;;;;;;5054869;28;20400;-78
2021/06/11 14:03:03;;;;;;;11.67;3.10;;;32.30;1.00;;;;;;5054016;28;20450;-75
2021/06/11 14:05:30;;;;;;;9.40;2.83;;;32.30;1.00;;;;;;5054475;28;20449;-74
2021/06/11 14:07:55;;;;;;;4.30;2.07;;;32.30;1.00;;;;;;5054108;28;20893;-75
2021/06/11 14:10:23;;;;;;;7.03;2.30;;;32.40;1.00;;;;;;5054131;28;20437;-74
2021/06/11 14:12:49;;;;;;;6.27;2.27;;;32.40;1.00;;;;;;5054209;28;20153;-74
2021/06/11 14:15:15;;;;;;;5.70;2.20;;;;;;;;;;5054134;28;20452;-74
2021/06/11 14:17:48;;;;;;;1.80;1.70;;;32.40;1.00;;;;;;5054079;28;20402;-77
2021/06/11 14:20:54;;;;;;;1.70;1.60;;;32.50;1.00;;;;;;5054495;28;20406;-77
2021/06/11 14:23:24;;;;;;;11.93;2.60;;;32.40;1.00;;;;;;5054058;28;20784;-77
2021/06/11 14:26:00;;;;;;;1.83;1.73;;;32.30;1.00;;;;;;5054183;28;20417;-77
2021/06/11 14:28:30;;;;;;;4.33;1.90;;;32.40;1.00;;;;;;5053042;28;20394;-77
2021/06/11 14:30:56;;;;;;;1.77;1.67;;;32.50;1.00;;;;;;5053177;28;20902;-77
2021/06/11 14:33:22;;;;;;;3.33;2.20;;;;;;;;;;5053388;28;20531;-77
2021/06/11 14:35:49;;;;;;;3.10;2.00;;;;;;;;;;5052811;28;20646;-77
2021/06/11 14:38:16;;;;;;;11.30;2.10;;;32.60;1.00;;;;;;5053168;28;20422;-78
2021/06/11 14:40:42;;;;;;;1.90;1.80;;;32.50;1.00;;;;;;5052690;28;20789;-77
2021/06/11 14:43:08;;;;;;;2.57;1.97;;;32.50;1.00;;;;;;5044542;28;20458;-77
2021/06/11 14:45:34;;;;;;;1.50;1.40;;;32.60;1.00;;;;;;5031088;28;20419;-77
2021/06/11 14:48:00;;;;;;;1.50;1.40;;;32.50;1.00;;;;;;5033366;28;20392;-77
2021/06/11 14:50:26;;;;;;;1.70;1.60;;;32.50;1.00;;;;;;5032428;28;20461;-77
2021/06/11 14:52:55;;;;;;;8.03;2.43;;;;;;;;;;5032337;28;20169;-78
2021/06/11 14:55:25;;;;;;;6.03;1.77;;;32.40;1.00;;;;;;5032402;28;20195;-77
2021/06/11 14:57:50;;;;;;;1.80;1.70;;;32.40;1.00;;;;;;5032969;28;20395;-77
2021/06/11 15:00:16;;;;;;;4.57;1.90;;;;;;;;;;5032591;28;20760;-77
2021/06/11 15:02:48;;;;;;;3.17;1.50;;;32.50;1.00;;;;;;5037977;28;20196;-78
2021/06/11 15:05:20;;;;;;;7.33;1.97;;;;;;;;;;5053245;28;20928;-78
2021/06/11 15:07:48;;;;;;;5.50;1.70;;;33.20;1.00;;;;;;5034027;28;20414;-79
2021/06/11 15:10:13;;;;;;;5.30;1.67;;;34.30;1.00;;;;;;5052177;28;20921;-78